createdAt,value
2023-11-18T00:00:43.041Z,5.16
2023-11-18T00:03:09.762Z,5.43
2023-11-18T00:05:36.405Z,5.39
2023-11-18T00:08:03.167Z,5.44
2023-11-18T00:10:30.808Z,5.42
2023-11-18T00:12:57.485Z,5.60
2023-11-18T00:15:24.102Z,5.68
2023-11-18T00:17:50.750Z,5.46
2023-11-18T00:20:17.498Z,5.71
2023-11-18T00:22:44.630Z,5.48
2023-11-18T00:25:12.254Z,5.43
2023-11-18T00:27:38.846Z,5.38
2023-11-18T00:30:06.381Z,5.43
2023-11-18T00:32:33.670Z,5.43
2023-11-18T00:35:00.833Z,5.32
2023-11-18T00:37:28.153Z,5.22
2023-11-18T00:39:54.780Z,5.32
2023-11-18T00:42:21.365Z,5.52
2023-11-18T00:44:48.954Z,5.37
2023-11-18T00:47:15.806Z,5.31
2023-11-18T00:49:42.632Z,5.56
2023-11-18T00:52:10.138Z,5.57
2023-11-18T00:54:37.598Z,5.37
2023-11-18T00:57:04.606Z,5.48
2023-11-18T00:59:31.730Z,5.26
2023-11-18T01:01:58.352Z,5.37
2023-11-18T01:04:25.062Z,5.44
2023-11-18T01:06:52.729Z,5.16
2023-11-18T01:09:19.263Z,4.93
2023-11-18T01:12:07.177Z,5.20
2023-11-18T01:14:32.861Z,4.97
2023-11-18T01:16:59.697Z,5.23
2023-11-18T01:19:26.289Z,4.96
2023-11-18T01:21:54.519Z,4.80
2023-11-18T01:24:21.377Z,4.94
2023-11-18T01:26:47.952Z,4.99
2023-11-18T01:29:14.626Z,4.65
2023-11-18T01:31:51.999Z,5.11
2023-11-18T01:34:24.775Z,4.83
2023-11-18T01:36:51.718Z,4.61
2023-11-18T01:39:19.285Z,5.11
2023-11-18T01:41:46.663Z,5.36
2023-11-18T01:44:16.251Z,5.17
2023-11-18T01:46:46.734Z,5.12
2023-11-18T01:49:15.685Z,5.08
2023-11-18T01:51:47.551Z,5.08
2023-11-18T01:54:17.231Z,5.13
2023-11-18T01:56:48.406Z,5.30
2023-11-18T01:59:19.499Z,4.97
2023-11-18T02:01:51.424Z,4.87
2023-11-18T02:04:20.935Z,4.91
2023-11-18T02:06:50.102Z,5.39
2023-11-18T02:09:20.459Z,4.96
2023-11-18T02:11:57.547Z,5.05
2023-11-18T02:14:27.669Z,5.10
2023-11-18T02:16:57.441Z,5.15
2023-11-18T02:19:26.491Z,5.10
2023-11-18T02:21:58.026Z,5.33
2023-11-18T02:24:32.324Z,4.97
2023-11-18T02:26:59.609Z,4.73
2023-11-18T02:29:29.979Z,5.11
2023-11-18T02:47:06.849Z,4.19
2023-11-18T02:49:36.052Z,4.44
2023-11-18T02:52:03.739Z,4.53
2023-11-18T02:54:30.362Z,4.55
2023-11-18T02:56:57.519Z,4.77
2023-11-18T02:59:24.052Z,4.91
2023-11-18T03:01:55.183Z,4.99
2023-11-18T03:04:21.767Z,4.85
2023-11-18T03:06:48.318Z,5.21
2023-11-18T03:09:17.903Z,5.00
2023-11-18T03:11:45.458Z,5.20
2023-11-18T03:14:12.169Z,4.77
2023-11-18T03:16:40.017Z,5.21
2023-11-18T03:19:06.551Z,5.24
2023-11-18T03:21:33.090Z,5.03
2023-11-18T03:23:59.640Z,4.89
2023-11-18T03:26:27.240Z,5.10
2023-11-18T03:28:53.817Z,4.80
2023-11-18T03:31:21.073Z,4.97
2023-11-18T03:33:47.647Z,4.84
2023-11-18T03:36:14.357Z,4.86
2023-11-18T03:38:41.060Z,5.19
2023-11-18T03:41:10.805Z,4.88
2023-11-18T03:43:38.971Z,4.87
2023-11-18T03:46:05.982Z,5.20
2023-11-18T03:48:32.625Z,5.07
2023-11-18T03:50:59.201Z,4.81
2023-11-18T03:53:25.693Z,5.10
2023-11-18T03:55:53.090Z,5.15
2023-11-18T03:58:19.731Z,5.09
2023-11-18T04:00:46.356Z,4.83
2023-11-18T04:03:13.258Z,5.18
2023-11-18T04:05:40.390Z,5.10
2023-11-18T04:08:07.677Z,4.89
2023-11-18T04:10:34.292Z,5.00
2023-11-18T04:13:00.900Z,4.91
2023-11-18T04:15:28.140Z,5.08
2023-11-18T04:17:54.775Z,5.32
2023-11-18T04:20:21.508Z,5.13
2023-11-18T04:22:48.080Z,5.07
2023-11-18T04:25:14.708Z,5.20
2023-11-18T04:27:45.201Z,5.44
2023-11-18T04:30:14.267Z,5.13
2023-11-18T04:32:43.722Z,5.11
2023-11-18T04:35:13.024Z,5.23
2023-11-18T04:37:44.333Z,5.29
2023-11-18T04:40:12.318Z,5.10
2023-11-18T04:42:39.971Z,5.23
2023-11-18T04:45:07.208Z,5.32
2023-11-18T04:47:34.241Z,5.22
2023-11-18T04:50:00.924Z,5.34
2023-11-18T04:52:28.121Z,5.39
2023-11-18T04:54:54.827Z,5.36
2023-11-18T04:57:21.231Z,5.52
2023-11-18T04:59:47.713Z,5.24
2023-11-18T05:02:14.361Z,5.15
2023-11-18T05:04:42.297Z,5.26
2023-11-18T05:07:08.904Z,4.93
2023-11-18T05:09:35.583Z,5.04
2023-11-18T05:12:02.097Z,5.23
2023-11-18T05:14:29.935Z,4.86
2023-11-18T05:16:57.061Z,5.10
2023-11-18T05:19:23.594Z,5.20
2023-11-18T05:21:53.066Z,5.34
2023-11-18T05:24:19.561Z,5.29
2023-11-18T05:26:46.052Z,5.35
2023-11-18T05:29:17.662Z,5.15
2023-11-18T05:31:44.893Z,5.28
2023-11-18T05:34:11.422Z,5.38
2023-11-18T05:36:38.958Z,5.42
2023-11-18T05:39:10.426Z,5.44
2023-11-18T05:41:40.597Z,5.49
2023-11-18T05:44:10.182Z,5.54
2023-11-18T05:46:37.164Z,5.37
2023-11-18T05:49:09.265Z,5.31
2023-11-18T05:51:36.652Z,5.36
2023-11-18T05:54:03.483Z,5.26
2023-11-18T05:56:29.997Z,5.48
2023-11-18T05:58:56.657Z,5.08
2023-11-18T06:01:23.628Z,5.36
2023-11-18T06:03:50.627Z,5.07
2023-11-18T06:06:21.401Z,5.20
2023-11-18T06:08:50.706Z,5.06
2023-11-18T06:11:17.730Z,5.26
2023-11-18T06:13:52.522Z,5.13
2023-11-18T06:16:22.263Z,5.24
2023-11-18T06:18:51.360Z,5.08
2023-11-18T06:21:19.856Z,5.15
2023-11-18T06:23:48.486Z,5.22
2023-11-18T06:26:16.326Z,4.94
2023-11-18T06:28:45.148Z,4.92
2023-11-18T06:31:13.094Z,4.72
2023-11-18T06:33:44.386Z,4.80
2023-11-18T06:36:18.507Z,4.90
2023-11-18T06:38:50.183Z,4.85
2023-11-18T06:41:18.025Z,4.73
2023-11-18T06:43:55.123Z,4.89
2023-11-18T06:46:23.400Z,4.84
2023-11-18T06:48:58.625Z,4.72
2023-11-18T06:51:28.812Z,4.79
2023-11-18T06:53:58.937Z,4.48
2023-11-18T06:56:25.980Z,4.82
2023-11-18T06:58:53.162Z,4.59
2023-11-18T07:01:25.016Z,4.31
2023-11-18T07:52:16.241Z,4.62
2023-11-18T07:54:54.510Z,4.80
2023-11-18T07:57:21.587Z,5.02
2023-11-18T08:00:00.353Z,5.07
2023-11-18T08:02:27.401Z,5.02
2023-11-18T08:04:57.334Z,5.18
2023-11-18T08:07:24.398Z,5.12
2023-11-18T08:09:51.354Z,5.16
2023-11-18T08:12:17.899Z,5.48
2023-11-18T08:14:44.756Z,5.45
2023-11-18T08:17:11.664Z,5.57
2023-11-18T08:19:38.767Z,5.40
2023-11-18T08:22:05.477Z,5.30
2023-11-18T08:24:34.511Z,5.08
2023-11-18T08:27:01.913Z,5.38
2023-11-18T08:29:43.121Z,5.29
2023-11-18T08:32:13.529Z,5.40
2023-11-18T08:34:41.713Z,5.23
2023-11-18T08:37:08.710Z,5.34
2023-11-18T08:46:28.442Z,5.30
2023-11-18T08:48:57.094Z,5.50
2023-11-18T08:51:27.190Z,5.11
2023-11-18T08:53:55.964Z,5.43
2023-11-18T08:56:32.684Z,5.51
2023-11-18T08:59:23.945Z,5.52
2023-11-18T09:01:50.598Z,5.72
2023-11-18T09:04:21.117Z,5.97
2023-11-18T09:06:49.197Z,5.54
2023-11-18T09:09:16.754Z,5.73
2023-11-18T09:11:43.810Z,5.82
2023-11-18T09:14:10.522Z,6.07
2023-11-18T09:16:40.760Z,6.35
2023-11-18T09:19:07.415Z,5.88
2023-11-18T09:21:38.448Z,5.91
2023-11-18T09:24:06.826Z,5.84
2023-11-18T09:26:33.727Z,6.03
2023-11-18T09:29:04.596Z,6.08
2023-11-18T09:31:35.130Z,6.25
2023-11-18T09:34:02.308Z,6.15
2023-11-18T09:36:30.185Z,6.53
2023-11-18T09:38:56.884Z,6.62
2023-11-18T09:41:27.781Z,6.37
2023-11-18T09:43:57.893Z,6.65
2023-11-18T09:46:31.757Z,6.91
2023-11-18T09:52:53.300Z,6.92
2023-11-18T09:55:33.107Z,6.57
2023-11-18T09:58:14.352Z,6.55
2023-11-18T10:00:43.072Z,6.46
2023-11-18T10:03:11.391Z,6.68
2023-11-18T10:05:41.567Z,6.80
2023-11-18T10:08:08.159Z,6.83
2023-11-18T10:10:38.681Z,6.89
2023-11-18T10:13:19.996Z,6.90
2023-11-18T10:15:51.851Z,7.06
2023-11-18T10:18:52.207Z,6.81
2023-11-18T10:21:58.908Z,7.12
2023-11-18T10:24:27.197Z,6.99
2023-11-18T10:26:57.777Z,7.00
2023-11-18T10:29:30.489Z,7.03
2023-11-18T10:32:09.404Z,7.18
2023-11-18T10:34:37.357Z,7.04
2023-11-18T10:37:09.361Z,7.08
2023-11-18T10:39:36.659Z,6.98
2023-11-18T10:42:04.349Z,6.99
2023-11-18T10:44:31.114Z,6.78
2023-11-18T10:47:00.040Z,6.88
2023-11-18T10:49:38.395Z,6.76
2023-11-18T10:52:09.334Z,6.71
2023-11-18T10:54:35.972Z,6.69
2023-11-18T10:57:08.753Z,6.66
2023-11-18T10:59:35.726Z,6.33
2023-11-18T11:02:18.590Z,6.66
2023-11-18T11:04:46.195Z,6.78
2023-11-18T11:07:14.346Z,6.87
2023-11-18T11:09:43.306Z,6.79
2023-11-18T11:12:16.295Z,6.81
2023-11-18T11:14:51.778Z,6.70
2023-11-18T11:17:31.026Z,6.66
2023-11-18T11:20:19.069Z,6.63
2023-11-18T11:23:21.061Z,6.62
2023-11-18T11:26:01.959Z,6.40
2023-11-18T11:28:57.113Z,5.93
2023-11-18T11:31:37.631Z,6.29
2023-11-18T11:34:26.637Z,6.34
2023-11-18T11:37:00.647Z,6.29
2023-11-18T11:39:31.887Z,6.36
2023-11-18T11:42:04.067Z,6.51
2023-11-18T11:44:32.358Z,6.38
2023-11-18T11:47:02.268Z,6.63
2023-11-18T11:49:48.375Z,6.45
2023-11-18T11:52:29.358Z,6.36
2023-11-18T11:55:06.551Z,6.69
2023-11-18T11:57:37.909Z,6.37
2023-11-18T12:00:16.620Z,6.65
2023-11-18T12:02:57.592Z,6.71
2023-11-18T12:05:27.402Z,6.69
2023-11-18T12:07:56.273Z,6.44
2023-11-18T12:10:30.444Z,6.60
2023-11-18T12:13:19.845Z,6.56
2023-11-18T12:15:58.822Z,6.71
2023-11-18T12:18:26.038Z,6.34
2023-11-18T12:20:57.261Z,6.37
2023-11-18T12:23:26.708Z,5.67
2023-11-18T12:25:58.112Z,6.16
2023-11-18T12:28:32.268Z,6.36
2023-11-18T12:30:59.289Z,6.46
2023-11-18T12:33:32.028Z,6.48
2023-11-18T12:36:10.446Z,6.43
2023-11-18T12:39:15.046Z,6.76
2023-11-18T12:41:42.234Z,6.75
2023-11-18T12:44:36.530Z,6.79
2023-11-18T12:47:16.509Z,6.51
2023-11-18T12:49:43.801Z,6.58
2023-11-18T12:52:14.088Z,6.70
2023-11-18T12:54:44.691Z,6.74
2023-11-18T12:57:15.303Z,6.83
2023-11-18T12:59:43.135Z,6.91
2023-11-18T13:02:14.502Z,6.81
2023-11-18T13:04:41.904Z,6.77
2023-11-18T13:07:12.552Z,6.74
2023-11-18T13:09:40.036Z,6.82
2023-11-18T13:12:10.026Z,6.87
2023-11-18T13:14:38.120Z,6.78
2023-11-18T13:17:09.852Z,6.77
2023-11-18T13:19:36.684Z,6.79
2023-11-18T13:22:09.114Z,6.86
2023-11-18T13:24:40.668Z,6.60
2023-11-18T13:27:10.181Z,6.44
2023-11-18T13:29:42.282Z,6.57
2023-11-18T13:32:11.790Z,6.46
2023-11-18T13:34:43.569Z,6.60
2023-11-18T13:37:11.927Z,6.80
2023-11-18T13:39:39.852Z,6.63
2023-11-18T13:42:27.382Z,6.73
2023-11-18T13:44:54.536Z,6.43
2023-11-18T13:47:22.154Z,6.48
2023-11-18T13:49:51.956Z,6.32
2023-11-18T13:52:20.468Z,6.47
2023-11-18T13:54:48.752Z,6.25
2023-11-18T13:57:15.921Z,6.40
2023-11-18T13:59:45.723Z,6.21
2023-11-18T14:02:13.217Z,6.03
2023-11-18T14:04:41.126Z,6.06
2023-11-18T14:07:07.759Z,6.38
2023-11-18T14:09:37.922Z,6.38
2023-11-18T14:12:07.611Z,6.08
2023-11-18T14:14:34.419Z,6.31
2023-11-18T14:17:01.203Z,6.33
2023-11-18T14:19:28.915Z,6.04
2023-11-18T14:21:57.076Z,5.92
2023-11-18T14:24:24.362Z,5.80
2023-11-18T14:26:51.765Z,5.75
2023-11-18T14:29:19.791Z,5.66
2023-11-18T14:31:47.710Z,5.71
2023-11-18T14:34:14.932Z,5.60
2023-11-18T14:36:42.398Z,5.54
2023-11-18T14:39:14.712Z,5.46
2023-11-18T14:41:41.913Z,5.43
2023-11-18T14:44:10.777Z,5.31
2023-11-18T14:46:42.234Z,5.30
2023-11-18T14:49:09.091Z,5.28
2023-11-18T14:51:36.980Z,5.48
2023-11-18T14:54:03.638Z,5.21
2023-11-18T14:56:30.685Z,4.84
2023-11-18T14:58:57.326Z,5.02
2023-11-18T15:01:23.965Z,5.07
2023-11-18T15:03:50.645Z,4.97
2023-11-18T15:06:25.187Z,5.17
2023-11-18T15:08:51.780Z,4.98
2023-11-18T15:11:24.641Z,5.24
2023-11-18T15:13:54.492Z,5.12
2023-11-18T15:16:21.486Z,5.18
2023-11-18T15:18:48.943Z,5.28
2023-11-18T15:21:16.604Z,5.09
2023-11-18T15:23:43.716Z,5.29
2023-11-18T15:26:11.073Z,5.28
2023-11-18T15:28:38.141Z,5.45
2023-11-18T15:31:05.470Z,5.40
2023-11-18T15:33:32.863Z,5.48
2023-11-18T15:35:59.957Z,5.54
2023-11-18T15:38:26.844Z,5.57
2023-11-18T15:40:53.474Z,5.26
2023-11-18T15:43:20.165Z,5.17
2023-11-18T15:45:46.960Z,5.16
2023-11-18T15:48:15.651Z,5.33
2023-11-18T15:50:42.982Z,5.10
2023-11-18T15:53:09.993Z,5.23
2023-11-18T15:55:39.554Z,5.35
2023-11-18T15:58:06.214Z,5.29
2023-11-18T16:00:33.275Z,5.45
2023-11-18T16:03:02.794Z,5.30
2023-11-18T16:05:35.426Z,5.15
2023-11-18T16:08:03.673Z,5.02
2023-11-18T16:14:10.882Z,5.16
2023-11-18T16:16:38.688Z,4.89
2023-11-18T16:19:05.260Z,5.02
2023-11-18T16:21:32.847Z,5.17
2023-11-18T16:23:59.401Z,5.04
2023-11-18T16:26:25.953Z,5.09
2023-11-18T16:28:52.596Z,5.03
2023-11-18T16:31:19.277Z,5.06
2023-11-18T16:33:46.691Z,5.10
2023-11-18T16:36:23.191Z,4.53
2023-11-18T16:38:49.990Z,4.71
2023-11-18T16:41:16.602Z,4.79
2023-11-18T16:43:43.127Z,4.86
2023-11-18T16:46:10.305Z,4.56
2023-11-18T16:48:36.907Z,4.58
2023-11-18T16:51:03.589Z,4.80
2023-11-18T16:53:30.241Z,4.51
2023-11-18T16:55:56.710Z,4.54
2023-11-18T16:58:23.280Z,4.18
2023-11-18T17:00:52.466Z,4.35
2023-11-18T17:03:22.172Z,4.37
2023-11-18T17:05:48.935Z,4.43
2023-11-18T17:08:15.697Z,4.79
2023-11-18T17:10:43.001Z,4.54
2023-11-18T17:13:09.756Z,4.49
2023-11-18T17:15:36.401Z,4.71
2023-11-18T17:18:04.190Z,4.57
2023-11-18T17:20:43.870Z,4.48
2023-11-18T17:23:10.612Z,4.63
2023-11-18T17:25:37.997Z,4.75
2023-11-18T17:28:09.322Z,4.28
2023-11-18T17:30:38.372Z,4.42
2023-11-18T17:33:05.141Z,4.61
2023-11-18T17:35:31.804Z,4.67
2023-11-18T17:37:58.595Z,4.27
2023-11-18T17:40:28.424Z,4.46
2023-11-18T17:42:55.657Z,4.60
2023-11-18T17:45:22.996Z,4.75
2023-11-18T17:47:49.838Z,4.80
2023-11-18T17:50:18.755Z,4.58
2023-11-18T17:52:48.375Z,4.77
2023-11-18T17:55:28.990Z,4.66
2023-11-18T17:57:58.907Z,4.58
2023-11-18T18:00:28.537Z,4.67
2023-11-18T18:02:56.570Z,4.82
2023-11-18T18:05:26.237Z,4.86
2023-11-18T18:08:11.154Z,4.82
2023-11-18T18:10:38.331Z,4.81
2023-11-18T18:13:38.985Z,4.83
2023-11-18T18:16:06.325Z,4.77
2023-11-18T18:18:33.189Z,4.45
2023-11-18T18:20:59.883Z,4.79
2023-11-18T18:23:26.457Z,4.86
2023-11-18T18:25:53.217Z,4.50
2023-11-18T18:28:19.652Z,4.86
2023-11-18T18:30:46.194Z,4.55
2023-11-18T18:33:12.967Z,4.66
2023-11-18T18:35:42.694Z,4.51
2023-11-18T18:38:12.177Z,4.52
2023-11-18T18:40:38.804Z,4.66
2023-11-18T18:43:07.585Z,4.73
2023-11-18T18:45:34.544Z,4.89
2023-11-18T18:48:01.161Z,4.88
2023-11-18T18:50:27.817Z,4.94
2023-11-18T18:52:54.387Z,4.72
2023-11-18T18:55:21.312Z,4.83
2023-11-18T18:57:47.973Z,4.98
2023-11-18T19:00:14.686Z,5.03
2023-11-18T19:02:41.618Z,4.46
2023-11-18T19:05:12.562Z,4.79
2023-11-18T19:07:39.208Z,4.79
2023-11-18T19:10:09.286Z,4.68
2023-11-18T19:12:35.879Z,4.97
2023-11-18T19:15:06.019Z,4.92
2023-11-18T19:17:36.133Z,5.03
2023-11-18T22:56:48.838Z,4.37
2023-11-18T22:59:18.324Z,4.80
2023-11-18T23:01:52.418Z,4.38
2023-11-18T23:04:19.448Z,4.83
2023-11-18T23:06:55.852Z,4.78
2023-11-18T23:09:23.297Z,4.38
2023-11-18T23:11:49.991Z,4.62
2023-11-18T23:14:16.678Z,4.76
2023-11-18T23:16:44.471Z,4.59
2023-11-18T23:19:12.005Z,4.54
2023-11-18T23:21:39.424Z,4.52
2023-11-18T23:24:07.033Z,4.54
2023-11-18T23:26:33.608Z,4.66
2023-11-18T23:29:00.173Z,4.91
2023-11-18T23:31:26.878Z,4.90
2023-11-18T23:33:53.658Z,4.47
2023-11-18T23:36:20.432Z,4.42
2023-11-18T23:38:47.475Z,4.77
2023-11-18T23:41:15.166Z,4.49
2023-11-18T23:43:41.945Z,4.65
2023-11-18T23:46:09.075Z,4.40
2023-11-18T23:48:38.080Z,4.19
2023-11-18T23:51:06.219Z,4.64
2023-11-18T23:53:33.836Z,4.40
2023-11-18T23:56:00.603Z,4.35
2023-11-18T23:58:27.197Z,4.57
